Time;durP1;ratioP1;P1;durP2;ratioP2;P2;SDS_P1;SDS_P2;PMS_P1;PMS_P2;Temp;Humidity;BMP_temperature;BMP_pressure;BME280_temperature;BME280_humidity;BME280_pressure;Samples;Min_cycle;Max_cycle;Signal;HPM_P1;HPM_P2
2023/08/12 00:01:41;;;;;;;1.10;1.10;;;19.00;94.10;;;;;;5089244;28;20096;-78
2023/08/12 00:04:06;;;;;;;0.90;0.90;;;19.00;94.30;;;;;;5103341;28;20044;-80
2023/08/12 00:06:32;;;;;;;1.33;1.23;;;19.00;94.40;;;;;;5093628;28;20023;-78
2023/08/12 00:08:57;;;;;;;0.90;0.90;;;18.90;94.60;;;;;;5094505;28;20024;-77
2023/08/12 00:11:23;;;;;;;0.88;0.88;;;18.90;94.80;;;;;;5095430;28;20020;-79
2023/08/12 00:13:49;;;;;;;0.98;0.98;;;18.80;95.00;;;;;;5098943;28;20028;-78
2023/08/12 00:16:14;;;;;;;0.80;0.80;;;18.80;95.20;;;;;;5094102;28;20039;-77
2023/08/12 00:18:40;;;;;;;1.05;0.98;;;18.80;95.30;;;;;;5127365;28;20031;-78
2023/08/12 00:21:10;;;;;;;0.88;0.88;;;18.80;95.50;;;;;;5129355;28;20035;-78
2023/08/12 00:23:40;;;;;;;0.95;0.95;;;18.80;95.70;;;;;;5104550;28;20029;-78
2023/08/12 00:26:06;;;;;;;1.17;1.17;;;18.80;95.90;;;;;;5080365;28;20025;-80
2023/08/12 00:28:32;;;;;;;0.82;0.82;;;18.80;96.10;;;;;;5113019;28;20024;-79
2023/08/12 00:30:58;;;;;;;0.80;0.80;;;18.70;96.30;;;;;;5099354;28;20031;-80
2023/08/12 00:33:24;;;;;;;0.75;0.75;;;18.70;96.50;;;;;;5096245;28;20028;-79
2023/08/12 00:35:49;;;;;;;1.00;1.00;;;18.60;96.90;;;;;;5100486;28;20023;-79
2023/08/12 00:38:15;;;;;;;0.90;0.90;;;18.60;96.80;;;;;;5119003;28;20364;-80
2023/08/12 00:40:41;;;;;;;0.68;0.68;;;18.60;96.90;;;;;;5121268;28;20109;-78
2023/08/12 00:43:09;;;;;;;0.82;0.82;;;18.50;97.20;;;;;;5101434;28;20024;-78
2023/08/12 00:45:34;;;;;;;0.75;0.75;;;18.50;97.40;;;;;;5102380;28;20024;-79
2023/08/12 00:48:01;;;;;;;0.70;0.70;;;18.50;97.60;;;;;;5100900;28;20032;-81
2023/08/12 00:50:26;;;;;;;0.90;0.90;;;18.50;97.70;;;;;;5102557;28;20384;-80
2023/08/12 00:52:52;;;;;;;0.88;0.88;;;18.50;97.80;;;;;;5099900;28;20035;-80
2023/08/12 00:55:18;;;;;;;0.70;0.70;;;18.50;98.00;;;;;;5106486;28;20039;-79
2023/08/12 00:57:44;;;;;;;0.60;0.60;;;18.50;98.20;;;;;;5111496;28;20143;-79
2023/08/12 01:00:10;;;;;;;0.65;0.65;;;18.40;98.30;;;;;;5116136;28;20054;-80
2023/08/12 01:02:36;;;;;;;0.93;0.93;;;18.40;98.50;;;;;;5105275;28;20546;-80
2023/08/12 01:05:02;;;;;;;0.90;0.90;;;18.40;98.60;;;;;;5098891;28;20020;-80
2023/08/12 01:07:28;;;;;;;1.13;1.13;;;18.40;98.80;;;;;;5115307;28;20388;-79
2023/08/12 01:09:54;;;;;;;1.15;1.10;;;18.40;99.00;;;;;;5110662;28;20024;-80
2023/08/12 01:12:53;;;;;;;1.40;1.30;;;18.30;99.10;;;;;;5100594;28;20484;-78
2023/08/12 01:15:24;;;;;;;1.38;1.20;;;18.30;99.30;;;;;;5052785;28;20032;-80
2023/08/12 01:17:52;;;;;;;1.30;1.30;;;18.20;99.50;;;;;;5110119;28;20050;-80
2023/08/12 01:20:26;;;;;;;1.30;1.30;;;18.20;99.80;;;;;;5116887;28;20031;-80
2023/08/12 01:23:13;;;;;;;1.02;1.02;;;18.20;99.90;;;;;;5120463;27;20016;-79
2023/08/12 01:25:39;;;;;;;1.00;1.00;;;18.10;99.90;;;;;;5109229;28;20031;-79
2023/08/12 01:28:05;;;;;;;1.02;1.02;;;18.10;99.90;;;;;;5101560;28;20103;-80
2023/08/12 01:30:32;;;;;;;0.95;0.95;;;18.10;99.90;;;;;;5106772;28;20036;-80
2023/08/12 01:33:14;;;;;;;0.90;0.90;;;18.00;99.90;;;;;;5106413;28;20177;-83
2023/08/12 01:35:44;;;;;;;0.80;0.80;;;18.00;99.90;;;;;;5092805;28;20089;-80
2023/08/12 01:38:11;;;;;;;0.80;0.80;;;18.10;99.90;;;;;;5103431;28;20052;-79
2023/08/12 01:40:40;;;;;;;1.00;1.00;;;18.00;99.90;;;;;;5102625;28;20051;-79
2023/08/12 01:43:07;;;;;;;1.00;1.00;;;18.00;99.90;;;;;;5111450;28;20046;-78
2023/08/12 01:45:33;;;;;;;0.93;0.93;;;17.90;99.90;;;;;;5109907;28;20069;-80
2023/08/12 01:47:58;;;;;;;0.80;0.80;;;17.90;99.90;;;;;;5103241;28;20015;-78
2023/08/12 01:50:25;;;;;;;0.98;0.98;;;17.90;99.90;;;;;;5102930;28;20047;-78
2023/08/12 01:52:51;;;;;;;1.20;1.10;;;17.80;99.90;;;;;;5084421;28;20036;-80
2023/08/12 01:55:17;;;;;;;0.90;0.90;;;17.80;99.90;;;;;;5093756;28;20028;-78
2023/08/12 01:57:43;;;;;;;1.05;1.05;;;17.80;99.90;;;;;;5121528;28;20041;-79
2023/08/12 02:00:09;;;;;;;1.00;1.00;;;17.80;99.90;;;;;;5127327;28;20051;-78
2023/08/12 02:02:34;;;;;;;1.45;1.35;;;17.70;99.90;;;;;;5112611;28;20024;-79
2023/08/12 02:05:00;;;;;;;1.10;1.10;;;17.70;99.90;;;;;;5089495;28;20019;-80
2023/08/12 02:07:26;;;;;;;1.02;1.02;;;17.70;99.90;;;;;;5109647;28;20117;-81
2023/08/12 02:09:51;;;;;;;0.82;0.82;;;17.70;99.90;;;;;;5105942;28;20020;-78
2023/08/12 02:12:17;;;;;;;1.02;1.02;;;17.60;99.90;;;;;;5115670;28;20036;-78
2023/08/12 02:14:43;;;;;;;1.05;1.00;;;17.60;99.90;;;;;;5115306;28;20023;-77
2023/08/12 02:17:09;;;;;;;1.02;1.02;;;17.60;99.90;;;;;;5115685;28;20020;-77
2023/08/12 02:19:34;;;;;;;0.90;0.90;;;17.50;99.90;;;;;;5115988;28;20028;-78
2023/08/12 02:22:01;;;;;;;1.00;1.00;;;17.50;99.90;;;;;;5117143;28;20392;-77
2023/08/12 02:24:27;;;;;;;1.10;1.10;;;17.50;99.90;;;;;;5115245;28;20059;-76
2023/08/12 02:26:53;;;;;;;0.88;0.88;;;17.50;99.90;;;;;;5111602;28;20032;-77
2023/08/12 02:29:19;;;;;;;0.80;0.80;;;17.50;99.90;;;;;;5110792;28;20046;-78
2023/08/12 02:31:44;;;;;;;1.10;1.10;;;17.40;99.90;;;;;;5113343;28;20024;-78
2023/08/12 02:34:10;;;;;;;1.27;1.20;;;17.40;99.90;;;;;;5096774;28;20181;-77
2023/08/12 02:36:36;;;;;;;0.70;0.70;;;17.30;99.90;;;;;;5107339;28;20027;-78
2023/08/12 02:39:02;;;;;;;0.80;0.80;;;17.40;99.90;;;;;;5086073;28;20081;-79
2023/08/12 02:41:27;;;;;;;1.02;1.02;;;17.30;99.90;;;;;;5110566;28;20547;-79
2023/08/12 02:43:53;;;;;;;0.88;0.88;;;17.30;99.90;;;;;;5110944;28;20047;-77
2023/08/12 02:46:19;;;;;;;1.30;1.30;;;17.30;99.90;;;;;;5085517;28;20143;-78
2023/08/12 02:48:47;;;;;;;1.27;1.20;;;17.30;99.90;;;;;;5120030;28;20020;-78
2023/08/12 02:51:13;;;;;;;1.50;1.40;;;17.30;99.90;;;;;;5105559;28;20012;-79
2023/08/12 02:53:38;;;;;;;1.33;1.23;;;17.30;99.90;;;;;;5098629;28;20055;-78
2023/08/12 02:56:04;;;;;;;1.35;1.33;;;17.20;99.90;;;;;;5102502;28;20032;-79
2023/08/12 02:58:30;;;;;;;1.70;1.60;;;17.20;99.90;;;;;;5115798;28;20038;-80
2023/08/12 03:00:56;;;;;;;1.20;1.10;;;17.20;99.90;;;;;;5115376;28;20077;-78
2023/08/12 03:03:22;;;;;;;1.13;1.10;;;17.20;99.90;;;;;;5106720;28;20106;-80
2023/08/12 03:05:48;;;;;;;1.20;1.20;;;17.10;99.90;;;;;;5094627;28;20053;-80
2023/08/12 03:08:14;;;;;;;1.38;1.30;;;17.20;99.90;;;;;;5112612;28;20411;-80
2023/08/12 03:10:41;;;;;;;1.08;1.08;;;17.10;99.90;;;;;;5103769;28;20016;-79
2023/08/12 03:13:07;;;;;;;1.20;1.10;;;17.10;99.90;;;;;;5117789;28;20027;-78
2023/08/12 03:15:33;;;;;;;0.88;0.88;;;17.10;99.90;;;;;;5093000;28;20039;-77
2023/08/12 03:17:58;;;;;;;1.10;1.10;;;17.10;99.90;;;;;;5093864;28;20054;-77
2023/08/12 03:20:24;;;;;;;0.80;0.80;;;17.10;99.90;;;;;;5101823;28;20046;-77
2023/08/12 03:22:50;;;;;;;1.00;1.00;;;17.00;99.90;;;;;;5105468;28;20511;-78
2023/08/12 03:25:19;;;;;;;1.08;1.00;;;17.10;99.90;;;;;;5102893;28;20460;-77
2023/08/12 03:27:44;;;;;;;1.40;1.40;;;17.00;99.90;;;;;;5115830;28;20020;-78
2023/08/12 03:30:11;;;;;;;1.02;0.98;;;17.00;99.90;;;;;;5125268;28;20042;-77
2023/08/12 03:32:37;;;;;;;1.00;1.00;;;16.90;99.90;;;;;;5107475;28;20028;-78
2023/08/12 03:35:03;;;;;;;1.30;1.20;;;16.90;99.90;;;;;;5100740;28;20070;-79
2023/08/12 03:37:29;;;;;;;1.33;1.23;;;17.00;99.90;;;;;;5104616;28;20020;-79
2023/08/12 03:39:55;;;;;;;1.20;1.10;;;16.90;99.90;;;;;;5099290;28;20482;-80
2023/08/12 03:42:20;;;;;;;0.90;0.90;;;17.00;99.90;;;;;;5085560;28;20039;-80
2023/08/12 03:44:46;;;;;;;0.95;0.95;;;16.90;99.90;;;;;;5082761;28;20028;-81
2023/08/12 03:47:12;;;;;;;1.00;1.00;;;16.90;99.90;;;;;;5096090;28;20020;-80
2023/08/12 03:49:38;;;;;;;1.40;1.30;;;16.90;99.90;;;;;;5098955;28;20122;-80
2023/08/12 03:52:04;;;;;;;1.17;1.17;;;16.80;99.90;;;;;;5112930;28;20066;-80
2023/08/12 03:54:30;;;;;;;1.10;1.10;;;16.80;99.90;;;;;;5103013;28;20020;-79
2023/08/12 03:56:55;;;;;;;1.13;1.13;;;16.80;99.90;;;;;;5090470;28;20032;-79
2023/08/12 03:59:21;;;;;;;0.93;0.93;;;16.80;99.90;;;;;;5109883;28;20040;-79
2023/08/12 04:01:47;;;;;;;1.05;0.95;;;16.70;99.90;;;;;;5099616;28;20024;-80
2023/08/12 04:04:13;;;;;;;0.95;0.95;;;16.70;99.90;;;;;;5104926;28;20043;-79
2023/08/12 04:06:38;;;;;;;1.00;1.00;;;16.80;99.90;;;;;;5101611;28;20073;-80
2023/08/12 04:09:05;;;;;;;1.00;1.00;;;16.80;99.90;;;;;;5114915;28;20028;-79
2023/08/12 04:11:31;;;;;;;1.10;1.10;;;16.70;99.90;;;;;;5107016;28;20099;-80
2023/08/12 04:13:56;;;;;;;1.25;1.20;;;16.80;99.90;;;;;;5108898;28;20048;-76
2023/08/12 04:16:23;;;;;;;1.38;1.30;;;16.80;99.90;;;;;;5115360;28;20107;-78
2023/08/12 04:18:48;;;;;;;1.02;1.02;;;16.70;99.90;;;;;;5117700;28;20019;-78
2023/08/12 04:21:14;;;;;;;1.10;1.08;;;16.80;99.90;;;;;;5101509;28;20038;-78
2023/08/12 04:23:40;;;;;;;1.27;1.20;;;16.80;99.90;;;;;;5121264;28;20032;-77
2023/08/12 04:26:06;;;;;;;0.90;0.90;;;16.80;99.90;;;;;;5109591;28;20028;-79
2023/08/12 04:28:31;;;;;;;1.33;1.23;;;16.80;99.90;;;;;;5089196;28;20020;-79
2023/08/12 04:30:57;;;;;;;1.10;1.00;;;16.80;99.90;;;;;;5104163;28;20024;-82
2023/08/12 04:33:23;;;;;;;0.85;0.85;;;16.90;99.90;;;;;;5123395;28;20019;-82
2023/08/12 04:35:49;;;;;;;0.88;0.88;;;16.90;99.90;;;;;;5119245;28;20030;-80
2023/08/12 04:38:15;;;;;;;1.08;1.08;;;16.90;99.90;;;;;;5106255;28;20435;-78
2023/08/12 04:40:42;;;;;;;1.00;1.00;;;16.90;99.90;;;;;;5102014;28;20049;-82
2023/08/12 04:43:08;;;;;;;1.00;1.00;;;17.00;99.90;;;;;;5102119;28;20134;-82
2023/08/12 04:45:34;;;;;;;1.02;1.02;;;17.00;99.90;;;;;;5101365;28;20080;-79
2023/08/12 04:48:00;;;;;;;0.90;0.90;;;17.10;99.90;;;;;;5097697;28;20466;-83
2023/08/12 04:50:29;;;;;;;1.10;1.10;;;17.10;99.90;;;;;;5080956;28;20029;-81
2023/08/12 04:52:55;;;;;;;1.10;1.10;;;17.10;99.90;;;;;;5086528;28;20020;-83
2023/08/12 04:55:21;;;;;;;1.00;1.00;;;17.20;99.90;;;;;;5103440;28;20080;-80
2023/08/12 04:57:46;;;;;;;0.88;0.88;;;17.20;99.90;;;;;;5090728;28;20021;-82
2023/08/12 05:00:15;;;;;;;1.33;1.23;;;17.20;99.90;;;;;;5100204;28;20560;-81
2023/08/12 05:02:41;;;;;;;1.30;1.20;;;17.30;99.90;;;;;;5102237;28;20024;-82
2023/08/12 05:05:07;;;;;;;0.93;0.93;;;17.30;99.90;;;;;;5104834;28;20054;-83
2023/08/12 05:07:33;;;;;;;1.13;1.13;;;17.30;99.90;;;;;;5118192;28;20032;-80
2023/08/12 05:09:59;;;;;;;0.82;0.82;;;17.40;99.90;;;;;;5112051;28;20024;-80
2023/08/12 05:12:25;;;;;;;1.30;1.30;;;17.50;99.90;;;;;;5108713;28;20035;-78
2023/08/12 05:14:50;;;;;;;1.20;1.10;;;17.50;99.90;;;;;;5091961;28;20044;-79
2023/08/12 05:17:17;;;;;;;0.80;0.80;;;17.60;99.90;;;;;;5093404;28;20103;-78
2023/08/12 05:19:43;;;;;;;1.05;1.05;;;17.70;99.90;;;;;;5097268;28;20103;-77
2023/08/12 05:22:09;;;;;;;1.10;1.10;;;17.70;99.90;;;;;;5090282;28;20020;-79
2023/08/12 05:24:34;;;;;;;1.15;1.10;;;17.80;99.90;;;;;;5080058;28;20025;-80
2023/08/12 05:27:00;;;;;;;0.75;0.75;;;17.80;99.90;;;;;;5082272;28;20035;-79
2023/08/12 05:29:26;;;;;;;1.05;1.05;;;17.90;99.90;;;;;;5092391;28;20048;-81
2023/08/12 05:31:53;;;;;;;0.93;0.93;;;17.90;99.90;;;;;;5121581;28;20028;-79
2023/08/12 05:34:18;;;;;;;0.60;0.60;;;18.00;99.90;;;;;;5120772;28;20114;-81
2023/08/12 05:36:44;;;;;;;0.90;0.90;;;18.00;99.90;;;;;;5122099;28;20020;-78
2023/08/12 05:39:10;;;;;;;0.98;0.98;;;18.10;99.90;;;;;;5104168;28;20028;-79
2023/08/12 05:41:35;;;;;;;0.93;0.93;;;18.10;99.90;;;;;;5103149;28;20024;-81
2023/08/12 05:44:01;;;;;;;0.70;0.70;;;18.20;99.90;;;;;;5095261;28;20028;-79
2023/08/12 05:46:27;;;;;;;0.95;0.95;;;18.30;99.90;;;;;;5092255;28;20025;-80
2023/08/12 05:48:52;;;;;;;0.90;0.90;;;18.30;99.90;;;;;;5085831;28;20020;-80
2023/08/12 05:51:18;;;;;;;0.80;0.80;;;18.40;99.90;;;;;;5099723;28;20047;-78
2023/08/12 05:53:44;;;;;;;0.90;0.90;;;18.50;99.90;;;;;;5102821;28;20408;-79
2023/08/12 05:56:09;;;;;;;1.02;1.02;;;18.60;99.90;;;;;;5103121;28;20497;-81
2023/08/12 05:58:35;;;;;;;1.38;1.27;;;18.70;99.90;;;;;;5088065;28;20070;-80
2023/08/12 06:01:01;;;;;;;1.20;1.20;;;18.80;99.80;;;;;;5079623;28;20033;-80
2023/08/12 06:03:26;;;;;;;1.10;1.10;;;19.00;99.50;;;;;;5096022;28;20072;-81
2023/08/12 06:05:54;;;;;;;1.10;1.10;;;19.10;99.00;;;;;;5090236;28;20039;-81
2023/08/12 06:08:20;;;;;;;1.40;1.30;;;19.30;98.60;;;;;;5110786;28;20537;-81
2023/08/12 06:10:46;;;;;;;1.17;1.17;;;19.50;98.10;;;;;;5120553;28;20037;-80
2023/08/12 06:13:11;;;;;;;1.38;1.33;;;19.70;97.60;;;;;;5119537;28;20027;-79
2023/08/12 06:15:40;;;;;;;1.05;1.02;;;19.90;97.00;;;;;;5125230;28;20019;-80
2023/08/12 06:18:06;;;;;;;1.10;1.10;;;21.20;96.40;;;;;;5126558;28;20043;-81
2023/08/12 06:20:31;;;;;;;1.00;1.00;;;23.70;92.80;;;;;;5125982;28;20032;-79
2023/08/12 06:22:57;;;;;;;1.00;1.00;;;26.00;85.80;;;;;;5128914;28;20032;-79
2023/08/12 06:25:23;;;;;;;1.13;1.13;;;28.00;76.50;;;;;;5132128;28;20035;-77
2023/08/12 06:27:48;;;;;;;0.80;0.80;;;29.50;68.90;;;;;;5116443;28;20123;-79
2023/08/12 06:30:14;;;;;;;0.80;0.80;;;30.90;63.60;;;;;;5112576;28;20031;-78
2023/08/12 06:32:40;;;;;;;0.75;0.75;;;32.20;58.80;;;;;;5110924;28;20024;-78
2023/08/12 06:35:06;;;;;;;0.80;0.80;;;32.90;56.10;;;;;;5112092;28;20052;-77
2023/08/12 06:37:35;;;;;;;0.80;0.80;;;32.70;54.60;;;;;;5113829;28;20020;-81
2023/08/12 06:40:01;;;;;;;0.93;0.93;;;32.00;53.90;;;;;;5114254;28;20031;-80
2023/08/12 06:42:30;;;;;;;0.73;0.73;;;32.00;54.00;;;;;;5108381;28;20028;-79
2023/08/12 06:44:58;;;;;;;1.00;1.00;;;32.40;53.00;;;;;;5105229;28;20032;-81
2023/08/12 06:47:23;;;;;;;0.70;0.70;;;32.40;53.00;;;;;;5125479;28;20487;-80
2023/08/12 06:49:49;;;;;;;0.85;0.85;;;32.50;51.80;;;;;;5109659;28;20059;-80
2023/08/12 06:52:18;;;;;;;0.88;0.88;;;31.70;52.10;;;;;;5114912;28;20036;-79
2023/08/12 06:54:44;;;;;;;0.80;0.80;;;30.60;53.00;;;;;;5115087;28;20085;-79
2023/08/12 06:57:11;;;;;;;1.10;1.10;;;;;;;;;;5110485;28;20020;-80
2023/08/12 06:59:39;;;;;;;0.80;0.80;;;27.50;57.80;;;;;;5096550;28;20016;-79
2023/08/12 07:02:06;;;;;;;0.70;0.70;;;27.40;60.70;;;;;;5096894;28;20016;-80
2023/08/12 07:04:32;;;;;;;0.90;0.90;;;27.30;60.20;;;;;;5089043;28;20047;-80
2023/08/12 07:06:58;;;;;;;0.75;0.75;;;26.50;61.10;;;;;;5096739;28;20023;-80
2023/08/12 07:09:24;;;;;;;0.77;0.77;;;25.70;63.40;;;;;;5134400;28;20024;-81
2023/08/12 07:11:52;;;;;;;0.77;0.77;;;24.80;66.10;;;;;;5136585;28;20045;-82
2023/08/12 07:14:18;;;;;;;0.85;0.85;;;24.20;68.70;;;;;;5132537;28;20020;-81
2023/08/12 07:16:44;;;;;;;0.98;0.98;;;23.60;70.80;;;;;;5125494;28;20068;-81
2023/08/12 07:19:10;;;;;;;0.80;0.80;;;23.40;72.40;;;;;;5099977;28;20028;-82
2023/08/12 07:21:35;;;;;;;0.90;0.90;;;23.20;73.20;;;;;;5107053;28;20020;-81
2023/08/12 07:24:01;;;;;;;1.23;1.23;;;23.10;74.10;;;;;;5104379;28;20024;-80
2023/08/12 07:26:27;;;;;;;1.13;1.05;;;23.00;75.20;;;;;;5106197;28;20028;-81
2023/08/12 07:28:53;;;;;;;1.00;1.00;;;23.00;75.40;;;;;;5088422;28;20017;-81
2023/08/12 07:31:19;;;;;;;1.38;1.38;;;23.00;75.60;;;;;;5084588;28;20362;-81
2023/08/12 07:33:44;;;;;;;1.30;1.30;;;23.00;75.90;;;;;;5084681;28;20104;-81
2023/08/12 07:36:10;;;;;;;1.45;1.45;;;23.00;76.20;;;;;;5106071;28;20050;-82
2023/08/12 07:38:36;;;;;;;1.60;1.50;;;23.10;76.00;;;;;;5095990;28;20040;-80
2023/08/12 07:41:02;;;;;;;1.50;1.50;;;23.10;76.00;;;;;;5085638;28;20060;-80
2023/08/12 07:43:28;;;;;;;2.13;1.92;;;23.30;76.00;;;;;;5084147;28;20044;-81
2023/08/12 07:45:54;;;;;;;1.85;1.75;;;23.30;76.00;;;;;;5066761;28;20044;-80
2023/08/12 07:48:20;;;;;;;1.73;1.63;;;23.40;76.10;;;;;;5088913;28;20034;-81
2023/08/12 07:50:48;;;;;;;1.98;1.88;;;23.50;75.60;;;;;;5105883;28;20035;-81
2023/08/12 07:53:15;;;;;;;1.77;1.67;;;23.60;75.80;;;;;;5106344;28;20028;-81
2023/08/12 07:55:42;;;;;;;1.80;1.70;;;23.80;75.90;;;;;;5104976;28;20068;-81
2023/08/12 07:58:08;;;;;;;1.75;1.65;;;23.90;75.20;;;;;;5102830;28;20016;-82
2023/08/12 08:00:34;;;;;;;1.70;1.60;;;24.10;74.80;;;;;;5083045;28;20048;-82
2023/08/12 08:03:00;;;;;;;1.85;1.75;;;24.30;74.30;;;;;;5084109;28;20048;-81
2023/08/12 08:05:39;;;;;;;2.00;1.90;;;24.50;73.90;;;;;;5096997;28;20031;-81
2023/08/12 08:08:05;;;;;;;1.80;1.70;;;24.80;72.60;;;;;;5114381;28;20023;-80
2023/08/12 08:10:31;;;;;;;1.50;1.50;;;25.10;72.00;;;;;;5113690;28;20555;-81
2023/08/12 08:12:57;;;;;;;1.77;1.67;;;25.30;71.40;;;;;;5094984;28;20025;-81
2023/08/12 08:15:23;;;;;;;2.20;2.10;;;;;;;;;;5086129;28;20088;-81
2023/08/12 08:17:49;;;;;;;2.30;2.10;;;25.70;69.20;;;;;;5085558;28;20021;-81
2023/08/12 08:20:15;;;;;;;1.98;1.88;;;26.00;69.70;;;;;;5096663;28;20020;-81
2023/08/12 08:22:40;;;;;;;2.10;1.95;;;26.30;68.90;;;;;;5101974;28;20027;-81
2023/08/12 08:25:06;;;;;;;2.00;1.80;;;26.70;68.20;;;;;;5099315;28;20032;-81
2023/08/12 08:27:33;;;;;;;1.80;1.70;;;27.00;66.80;;;;;;5097402;28;20055;-81
2023/08/12 08:29:58;;;;;;;1.65;1.60;;;27.30;65.70;;;;;;5104677;28;20029;-82
2023/08/12 08:32:25;;;;;;;1.45;1.45;;;27.60;65.50;;;;;;5102190;28;20139;-81
2023/08/12 08:34:51;;;;;;;1.73;1.63;;;28.00;64.40;;;;;;5099714;28;20033;-80
2023/08/12 08:37:17;;;;;;;1.75;1.65;;;28.40;63.30;;;;;;5114713;28;20077;-81
2023/08/12 08:39:43;;;;;;;2.10;2.00;;;28.70;61.70;;;;;;5118584;28;20030;-81
2023/08/12 08:42:11;;;;;;;1.85;1.75;;;28.90;61.20;;;;;;5089452;28;20020;-81
2023/08/12 08:44:40;;;;;;;1.67;1.67;;;29.00;60.70;;;;;;5073760;28;20036;-82
2023/08/12 08:47:06;;;;;;;1.75;1.65;;;29.10;60.10;;;;;;5075669;28;20033;-82
2023/08/12 08:49:35;;;;;;;2.78;2.58;;;29.40;59.30;;;;;;5075528;28;20044;-81
2023/08/12 08:52:00;;;;;;;2.60;2.40;;;29.40;59.10;;;;;;5104127;28;20024;-82
2023/08/12 08:54:27;;;;;;;3.17;2.92;;;29.40;58.90;;;;;;5105388;28;20073;-82
2023/08/12 08:56:56;;;;;;;2.78;2.58;;;29.40;58.60;;;;;;5104770;28;20084;-82
2023/08/12 08:59:22;;;;;;;2.53;2.33;;;29.30;58.80;;;;;;5106586;28;20040;-82
2023/08/12 09:01:51;;;;;;;3.42;3.13;;;29.30;58.90;;;;;;5099864;28;20028;-82
2023/08/12 09:04:18;;;;;;;2.78;2.58;;;29.30;58.60;;;;;;5106407;28;20043;-82
2023/08/12 09:06:44;;;;;;;3.25;3.05;;;29.40;58.90;;;;;;5113287;28;20048;-83
2023/08/12 09:09:13;;;;;;;2.47;2.38;;;29.50;58.70;;;;;;5125390;28;20032;-85
2023/08/12 09:11:40;;;;;;;2.60;2.40;;;29.50;58.20;;;;;;5103038;28;20048;-83
2023/08/12 09:14:10;;;;;;;4.25;2.88;;;29.40;59.00;;;;;;5085945;28;20020;-82
2023/08/12 09:16:41;;;;;;;3.03;2.78;;;29.30;59.80;;;;;;5106901;28;20121;-82
2023/08/12 09:19:06;;;;;;;3.00;2.73;;;29.10;59.50;;;;;;5122983;28;20058;-82
2023/08/12 09:21:41;;;;;;;2.60;2.50;;;29.10;60.20;;;;;;5116230;28;20020;-83
2023/08/12 09:24:08;;;;;;;3.45;2.83;;;29.10;60.20;;;;;;5103341;28;20039;-82
2023/08/12 09:26:34;;;;;;;3.00;2.80;;;29.10;59.90;;;;;;5097928;28;20037;-82
2023/08/12 09:29:02;;;;;;;2.83;2.67;;;29.10;60.00;;;;;;5108265;28;20062;-80
2023/08/12 09:31:30;;;;;;;2.83;2.65;;;29.10;60.10;;;;;;5120717;28;20108;-81
2023/08/12 09:34:03;;;;;;;2.30;2.20;;;29.10;59.70;;;;;;5121326;28;20023;-79
2023/08/12 09:36:30;;;;;;;2.40;2.30;;;29.30;59.20;;;;;;5125357;28;20043;-80
2023/08/12 09:38:57;;;;;;;2.55;2.35;;;29.40;59.10;;;;;;5137376;28;20018;-78
2023/08/12 09:41:24;;;;;;;2.35;2.17;;;29.50;58.50;;;;;;5138272;28;20079;-78
2023/08/12 09:43:52;;;;;;;2.67;2.47;;;29.70;58.20;;;;;;5137960;28;20036;-79
2023/08/12 09:46:17;;;;;;;2.65;2.47;;;29.80;58.30;;;;;;5137912;28;20004;-79
2023/08/12 09:48:43;;;;;;;2.78;2.58;;;29.90;58.70;;;;;;5138198;28;20069;-78
2023/08/12 09:51:09;;;;;;;2.28;2.17;;;30.10;57.70;;;;;;5125865;27;20066;-81
2023/08/12 09:53:35;;;;;;;2.75;2.55;;;30.20;57.50;;;;;;5095007;28;20039;-81
2023/08/12 09:56:11;;;;;;;3.88;3.35;;;30.10;57.30;;;;;;5110415;28;20027;-81
2023/08/12 09:58:37;;;;;;;3.10;2.90;;;29.80;57.80;;;;;;5122587;28;20034;-81
2023/08/12 10:01:04;;;;;;;3.20;2.90;;;29.60;58.20;;;;;;5123485;28;20042;-82
2023/08/12 10:03:32;;;;;;;3.33;3.03;;;29.50;58.70;;;;;;5112081;28;20520;-80
2023/08/12 10:05:59;;;;;;;3.55;3.35;;;29.40;59.60;;;;;;5106578;28;20081;-82
2023/08/12 10:08:27;;;;;;;3.42;3.22;;;29.40;59.60;;;;;;5117157;28;20075;-80
2023/08/12 10:10:53;;;;;;;2.95;2.75;;;29.40;59.80;;;;;;5121856;28;20055;-81
2023/08/12 10:13:20;;;;;;;3.33;3.13;;;29.40;59.90;;;;;;5116670;28;20047;-81
2023/08/12 10:15:47;;;;;;;3.05;2.67;;;29.50;59.80;;;;;;5102411;28;20020;-80
2023/08/12 10:18:14;;;;;;;2.83;2.67;;;29.50;59.20;;;;;;5101881;28;20028;-81
2023/08/12 10:20:40;;;;;;;3.10;2.90;;;29.50;59.60;;;;;;5102289;28;20461;-82
2023/08/12 10:23:07;;;;;;;5.03;3.30;;;29.50;59.20;;;;;;5103016;28;20052;-82
2023/08/12 10:25:34;;;;;;;3.33;3.05;;;29.50;59.20;;;;;;5101593;28;20058;-82
2023/08/12 10:28:00;;;;;;;3.50;3.20;;;29.50;59.20;;;;;;5105049;28;20026;-81
2023/08/12 10:30:29;;;;;;;2.95;2.75;;;29.60;58.90;;;;;;5117093;28;20012;-78
2023/08/12 10:33:02;;;;;;;3.63;3.00;;;29.80;58.80;;;;;;5133520;28;20031;-80
2023/08/12 10:35:48;;;;;;;3.17;2.97;;;29.90;58.10;;;;;;5123084;28;20513;-79
2023/08/12 10:38:18;;;;;;;3.00;2.80;;;29.80;57.60;;;;;;5106881;27;20032;-80
2023/08/12 10:40:44;;;;;;;2.83;2.63;;;29.40;58.00;;;;;;5093408;28;20035;-82
2023/08/12 10:43:13;;;;;;;2.95;2.75;;;29.50;59.00;;;;;;5101390;28;20393;-81
2023/08/12 10:45:43;;;;;;;2.80;2.60;;;29.90;58.30;;;;;;5089895;28;20069;-81
2023/08/12 10:48:11;;;;;;;3.42;2.65;;;30.30;57.20;;;;;;5116003;27;20043;-81
2023/08/12 10:50:44;;;;;;;2.67;2.47;;;30.50;56.80;;;;;;5112403;28;20024;-81
2023/08/12 10:53:29;;;;;;;3.40;2.70;;;30.70;56.50;;;;;;5118416;28;20537;-81
2023/08/12 10:56:03;;;;;;;2.60;2.40;;;30.80;55.90;;;;;;5105191;28;20024;-81
2023/08/12 10:58:50;;;;;;;2.80;2.60;;;30.60;56.40;;;;;;5098195;28;20034;-80
2023/08/12 11:01:23;;;;;;;3.20;3.00;;;30.50;57.30;;;;;;5097215;28;20049;-80
2023/08/12 11:03:49;;;;;;;3.03;2.70;;;30.30;57.50;;;;;;5096768;28;20393;-79
2023/08/12 11:06:16;;;;;;;3.10;2.90;;;30.50;57.60;;;;;;5106028;27;20099;-80
2023/08/12 11:08:52;;;;;;;2.88;2.67;;;30.60;57.20;;;;;;5101359;28;20028;-80
2023/08/12 11:11:26;;;;;;;2.70;2.60;;;30.60;57.00;;;;;;5105821;28;20372;-81
2023/08/12 11:13:59;;;;;;;3.08;2.88;;;30.80;57.20;;;;;;5101046;28;20027;-81
2023/08/12 11:16:38;;;;;;;3.08;2.88;;;30.90;57.00;;;;;;5097416;28;20084;-79
2023/08/12 11:19:04;;;;;;;3.10;2.90;;;30.90;56.80;;;;;;5102757;28;20030;-79
2023/08/12 11:21:30;;;;;;;2.90;2.70;;;31.00;56.70;;;;;;5121183;28;20019;-79
2023/08/12 11:23:56;;;;;;;3.22;3.00;;;31.00;56.30;;;;;;5112322;28;20150;-79
2023/08/12 11:26:23;;;;;;;2.97;2.78;;;31.10;56.90;;;;;;5099735;28;20034;-79
2023/08/12 11:28:50;;;;;;;3.10;2.90;;;31.10;55.90;;;;;;5086257;28;20332;-80
2023/08/12 11:31:16;;;;;;;3.10;2.90;;;31.10;55.10;;;;;;5089583;28;20388;-81
2023/08/12 11:33:42;;;;;;;2.90;2.70;;;31.10;54.60;;;;;;5107446;28;20058;-78
2023/08/12 11:36:08;;;;;;;3.10;2.63;;;31.30;53.90;;;;;;5099273;28;20029;-81
2023/08/12 11:38:38;;;;;;;3.03;2.83;;;31.30;53.30;;;;;;5119886;28;20027;-82
2023/08/12 11:41:04;;;;;;;3.10;2.90;;;31.40;52.80;;;;;;5110385;28;20031;-81
2023/08/12 11:43:32;;;;;;;2.75;2.55;;;31.30;53.00;;;;;;5109980;28;20048;-80
2023/08/12 11:45:59;;;;;;;3.78;2.90;;;31.40;52.00;;;;;;5104628;28;20024;-82
2023/08/12 11:48:27;;;;;;;2.80;2.60;;;31.40;51.90;;;;;;5090817;28;20114;-79
2023/08/12 11:50:54;;;;;;;3.00;2.80;;;31.40;51.90;;;;;;5099001;28;20024;-80
2023/08/12 11:53:20;;;;;;;3.10;2.90;;;31.50;51.40;;;;;;5099197;28;20051;-82
2023/08/12 11:55:46;;;;;;;2.65;2.45;;;31.60;51.70;;;;;;5100294;28;20030;-80
2023/08/12 11:58:13;;;;;;;2.60;2.40;;;31.70;51.60;;;;;;5101104;28;20099;-80
2023/08/12 12:00:39;;;;;;;2.65;2.47;;;31.70;51.20;;;;;;5101199;28;20096;-81
2023/08/12 12:03:06;;;;;;;2.70;2.58;;;31.70;50.80;;;;;;5099953;28;20129;-81
2023/08/12 12:05:33;;;;;;;2.80;2.60;;;31.60;50.70;;;;;;5099753;28;20028;-81
2023/08/12 12:07:59;;;;;;;3.20;2.90;;;31.70;50.50;;;;;;5107647;28;20510;-79
2023/08/12 12:10:33;;;;;;;2.88;2.67;;;31.90;50.00;;;;;;5120342;28;20027;-81
2023/08/12 12:13:00;;;;;;;3.17;2.97;;;32.00;50.10;;;;;;5117371;28;20065;-81
2023/08/12 12:15:25;;;;;;;3.28;2.97;;;32.20;50.10;;;;;;5090012;28;20083;-81
2023/08/12 12:17:51;;;;;;;2.70;2.53;;;32.40;50.20;;;;;;5093513;28;20048;-81
2023/08/12 12:20:18;;;;;;;2.38;2.17;;;32.50;49.80;;;;;;5079939;28;20100;-82
2023/08/12 12:22:45;;;;;;;3.05;2.80;;;32.40;49.40;;;;;;5079511;28;20036;-80
2023/08/12 12:25:12;;;;;;;2.70;2.50;;;32.20;49.80;;;;;;5078218;28;20485;-82
2023/08/12 12:27:39;;;;;;;2.67;2.55;;;32.10;50.10;;;;;;5079009;28;20032;-81
2023/08/12 12:30:07;;;;;;;3.00;2.80;;;32.40;49.90;;;;;;5086755;28;20020;-83
2023/08/12 12:32:34;;;;;;;2.95;2.75;;;32.60;49.10;;;;;;5117988;28;20028;-82
2023/08/12 12:34:59;;;;;;;2.95;2.70;;;32.70;48.30;;;;;;5121035;28;20020;-81
2023/08/12 12:37:25;;;;;;;2.60;2.47;;;32.60;48.60;;;;;;5122793;28;20028;-81
2023/08/12 12:39:51;;;;;;;2.70;2.58;;;32.20;49.20;;;;;;5111647;28;20063;-79
2023/08/12 12:42:17;;;;;;;2.88;2.50;;;32.20;49.90;;;;;;5118829;28;20089;-77
2023/08/12 12:44:43;;;;;;;2.80;2.60;;;32.20;50.40;;;;;;5119953;28;20051;-77
2023/08/12 12:47:10;;;;;;;3.17;2.83;;;32.10;50.50;;;;;;5139984;28;20035;-78